Stations météo

réclame
Mon MeteoGroup
Paganella, Italie (16022): Température de l'air & dewpoint: 14.10.2018 19:00:00 - 20.10.2018 19:00:00 (CEST)Paganella, Italie (16022): Vitesse du vent: 14.10.2018 19:00:00 - 20.10.2018 19:00:00 (CEST)Paganella, Italie (16022): Direction du vent: 14.10.2018 19:00:00 - 20.10.2018 19:00:00 (CEST)Paganella, Italie (16022): visibility: 14.10.2018 19:00:00 - 20.10.2018 19:00:00 (CEST)Paganella, Italie (16022): Ensoleillement: 14.10.2018 19:00:00 - 20.10.2018 19:00:00 (CEST)
Date & Time tt [°C] td [°C] ff [km/h] ff [knt] dd vv [km] sd [min]
20.10.2018 19:00:00 8,0 -0,5 0 0 N 45 18
20.10.2018 18:00:00 9,0 1,7 0 0 N 60 60
20.10.2018 17:00:00 9,2 -1,2 8 4 N 60 60
20.10.2018 16:00:00 9,0 1,2 8 4 N 60 60
20.10.2018 15:00:00 8,5 0,0 9 5 N 60 60
20.10.2018 14:00:00 8,2 -1,6 9 5 N 60 60
20.10.2018 13:00:00 8,0 -3,2 8 4 N 60 60
20.10.2018 12:00:00 7,0 -1,4 8 4 N 50 60
20.10.2018 11:00:00 6,4 -0,8 8 4 N 50 60
20.10.2018 10:00:00 6,0 1,7 11 6 N 40 60
20.10.2018 09:00:00 5,2 4,3 8 4 N 30 -
20.10.2018 08:00:00 4,8 4,1 5 3 N 0,3 0
20.10.2018 07:00:00 5,4 3,1 0 0 N 0,3 -
20.10.2018 06:00:00 5,4 3,2 0 0 N 0,3 -
20.10.2018 05:00:00 5,8 4,1 0 0 N 0,3 -
20.10.2018 04:00:00 6,0 4,5 0 0 N 0,3 -
20.10.2018 03:00:00 6,0 5,2 0 0 N 0,1 -
20.10.2018 02:00:00 6,0 5,3 0 0 N 0,1 -
20.10.2018 01:00:00 6,0 6,0 11 6 SSW 0,1 -
20.10.2018 00:00:00 6,0 5,9 9 5 S 0,1 -
19.10.2018 23:00:00 6,4 5,7 9 5 SSW 30 -
19.10.2018 22:00:00 6,6 4,8 9 5 SSW 40 -
19.10.2018 21:00:00 6,4 4,6 15 8 SSW 40 -
19.10.2018 20:00:00 7,0 4,8 15 8 SSW 40 -
19.10.2018 19:00:00 7,2 4,0 13 7 SSW 40 0
19.10.2018 18:00:00 8,4 3,2 11 6 SSW 50 54
19.10.2018 17:00:00 9,4 3,4 11 6 SSW 50 60
19.10.2018 16:00:00 9,2 3,8 0 0 N 50 60
19.10.2018 15:00:00 9,2 4,4 4 2 N 50 60
19.10.2018 14:00:00 9,0 5,0 0 0 N 50 60
19.10.2018 13:00:00 8,4 5,2 4 2 N 50 60
19.10.2018 12:00:00 7,8 4,9 5 3 N 50 60
19.10.2018 11:00:00 7,0 4,7 4 2 N 50 60
19.10.2018 10:00:00 6,2 4,2 0 0 N 60 60
19.10.2018 09:00:00 5,9 4,1 0 0 N 50 30
19.10.2018 08:00:00 5,1 3,3 5 3 SSW 50 0
19.10.2018 07:00:00 5,4 2,6 5 3 SSW 40 -
19.10.2018 06:00:00 5,9 4,1 0 0 N 40 -
19.10.2018 05:00:00 5,9 3,4 0 0 N 40 -
19.10.2018 04:00:00 6,2 3,4 0 0 N 40 -
19.10.2018 03:00:00 6,0 3,7 0 0 N 40 -
19.10.2018 02:00:00 6,1 3,8 0 0 N 40 -
19.10.2018 01:00:00 6,0 3,7 5 3 S 40 -
19.10.2018 00:00:00 6,2 3,7 8 4 SSW 40 -
18.10.2018 23:00:00 7,0 2,9 8 4 N 40 -
18.10.2018 22:00:00 6,8 3,6 8 4 N 40 -
18.10.2018 21:00:00 7,0 3,4 0 0 N 40 -
18.10.2018 20:00:00 7,2 3,6 0 0 N 40 -
18.10.2018 19:00:00 7,8 3,3 5 3 S 50 0
18.10.2018 18:00:00 9,0 3,4 5 3 S 50 0
18.10.2018 17:00:00 9,3 4,1 0 0 N 50 48
18.10.2018 16:00:00 9,3 3,7 0 0 N 50 42
18.10.2018 15:00:00 9,4 4,0 4 2 N 50 48
18.10.2018 14:00:00 9,0 4,4 0 0 N 50 60
18.10.2018 13:00:00 8,0 3,7 5 3 NNE 50 42
18.10.2018 12:00:00 7,3 3,5 5 3 WNW 50 36
18.10.2018 11:00:00 6,5 3,8 5 3 WNW 50 0
18.10.2018 10:00:00 5,2 4,5 5 3 WNW 50 0
18.10.2018 09:00:00 5,0 4,1 9 5 N 50 0
18.10.2018 08:00:00 5,0 4,3 9 5 N 40 0
18.10.2018 07:00:00 5,0 4,7 9 5 N 30 -
18.10.2018 06:00:00 5,1 4,4 4 2 N 25 -
18.10.2018 05:00:00 5,2 3,4 0 0 N 30 -
18.10.2018 04:00:00 5,4 3,9 5 3 SSW 30 -
18.10.2018 03:00:00 5,6 3,9 8 4 SSW 25 -
18.10.2018 02:00:00 5,7 3,7 11 6 SSW 25 -
18.10.2018 01:00:00 6,5 3,8 5 3 S 25 -
18.10.2018 00:00:00 6,8 4,1 5 3 S 25 -
17.10.2018 23:00:00 6,6 3,9 8 4 SSW 25 -
17.10.2018 22:00:00 6,8 4,1 5 3 SSW 25 -
17.10.2018 21:00:00 7,0 4,1 8 4 SSW 25 -
17.10.2018 20:00:00 6,8 4,6 8 4 SSW 25 -
17.10.2018 19:00:00 7,2 3,6 9 5 SSW 30 0
17.10.2018 18:00:00 7,5 3,9 8 4 SW 30 0
17.10.2018 17:00:00 8,0 4,0 9 5 SW 30 0
17.10.2018 16:00:00 8,8 3,8 11 6 SW 35 30
17.10.2018 15:00:00 8,1 3,9 11 6 SW 30 6
17.10.2018 14:00:00 8,0 4,4 13 7 SSW 25 42
17.10.2018 13:00:00 8,0 4,9 11 6 S 25 0
17.10.2018 12:00:00 7,2 4,5 9 5 SSW 30 0
17.10.2018 11:00:00 6,8 5,6 8 4 S 30 0
17.10.2018 10:00:00 6,8 5,6 8 4 S 30 18
17.10.2018 09:00:00 4,6 2,8 5 3 SSE 30 0
17.10.2018 08:00:00 4,0 1,2 0 0 N 30 0
17.10.2018 07:00:00 3,9 1,1 0 0 N 20 -
17.10.2018 06:00:00 4,0 2,4 0 0 N 15 -
17.10.2018 05:00:00 4,0 2,8 5 3 - 15 -
17.10.2018 04:00:00 4,0 2,4 0 0 N 15 -
17.10.2018 03:00:00 3,9 2,6 8 4 S 15 -
17.10.2018 02:00:00 4,0 2,8 11 6 SSW 15 -
17.10.2018 01:00:00 4,0 3,1 8 4 S 15 -
17.10.2018 00:00:00 4,0 3,3 8 4 SSW 15 -
16.10.2018 23:00:00 4,0 3,4 9 5 S 12 -
16.10.2018 22:00:00 4,2 3,6 11 6 SSW 0,6 -
16.10.2018 21:00:00 4,2 2,4 11 6 S 0,6 -
16.10.2018 20:00:00 4,7 3,2 11 6 SSW 25 -
16.10.2018 19:00:00 5,0 3,0 15 8 SW 30 0
16.10.2018 18:00:00 5,6 1,7 13 7 WSW 30 0
16.10.2018 17:00:00 6,7 1,0 11 6 WSW 30 0
16.10.2018 16:00:00 7,8 2,7 5 3 WSW 30 6
16.10.2018 15:00:00 8,0 2,5 9 5 SW 25 60
16.10.2018 14:00:00 7,3 2,6 8 4 SW 25 48
16.10.2018 13:00:00 6,4 3,6 5 3 WSW 25 24
16.10.2018 12:00:00 5,0 2,9 5 3 N 25 0
16.10.2018 11:00:00 4,3 2,5 5 3 N 30 0
16.10.2018 10:00:00 3,6 3,2 5 3 N 15 0
16.10.2018 09:00:00 2,8 2,5 5 3 NNW 15 0
16.10.2018 08:00:00 3,0 1,8 4 2 NNW 18 0
16.10.2018 07:00:00 2,8 2,2 4 2 NNW 15 -
16.10.2018 06:00:00 2,8 2,2 5 3 NNW 13 -
16.10.2018 05:00:00 2,8 2,4 4 2 S 13 -
16.10.2018 04:00:00 2,7 2,3 8 4 S 10 -
16.10.2018 03:00:00 2,6 2,0 11 6 S 10 -
16.10.2018 02:00:00 2,4 1,8 15 8 SW 10 -
16.10.2018 01:00:00 2,8 2,5 11 6 WSW 10 -
16.10.2018 00:00:00 3,0 3,0 11 6 S - -
15.10.2018 23:00:00 2,8 2,8 8 4 SW - -
15.10.2018 22:00:00 3,8 3,8 11 6 WSW - -
15.10.2018 21:00:00 4,0 4,0 22 12 S - -
15.10.2018 20:00:00 3,8 3,8 22 12 S 0,1 -
15.10.2018 19:00:00 4,4 3,7 24 13 S 0,9 0
15.10.2018 18:00:00 4,8 4,1 22 12 SSE 0,9 0
15.10.2018 17:00:00 5,4 3,6 21 11 SE 13 6
15.10.2018 16:00:00 6,2 3,5 21 11 SE 18 12
15.10.2018 15:00:00 6,8 4,3 18 10 SSE 20 12
15.10.2018 14:00:00 6,2 3,7 16 9 SSE 20 30
15.10.2018 13:00:00 6,0 4,5 18 10 SSE 10 0
15.10.2018 12:00:00 5,8 4,0 11 6 SSE 5 0
15.10.2018 11:00:00 6,0 4,0 16 9 SSE 10 0
15.10.2018 10:00:00 5,0 4,0 15 8 SSE 10 0
15.10.2018 09:00:00 4,4 3,8 18 10 SSE 10 24
15.10.2018 08:00:00 3,2 2,3 22 12 S 10 0
15.10.2018 07:00:00 4,0 2,8 18 10 S 10 -
15.10.2018 06:00:00 4,0 2,8 18 10 SSW 10 -
15.10.2018 05:00:00 4,0 2,8 18 10 S 10 -
15.10.2018 04:00:00 3,7 3,0 16 9 S 15 -
15.10.2018 03:00:00 3,6 3,3 18 10 S 15 -
15.10.2018 02:00:00 3,7 3,3 22 12 S 15 -
15.10.2018 01:00:00 3,7 3,3 21 11 SSE 15 -
15.10.2018 00:00:00 4,2 3,3 24 13 S 15 -
14.10.2018 23:00:00 4,6 3,1 22 12 S 18 -
14.10.2018 22:00:00 5,0 3,3 13 7 SSW 20 -
14.10.2018 21:00:00 5,2 3,2 15 8 SW 20 -
14.10.2018 20:00:00 5,4 2,2 15 8 SW 15 -
14.10.2018 19:00:00 5,8 1,7 15 8 SW 15 0

tt = Température de l'air
td = dewpoint
ff = Vitesse du vent
dd = Direction du vent
vv = visibility
sd = Ensoleillement

stations d'obs. à proximité